ADDS TAF Board (Experimental) INFO Settings
IDs: Format: Expanded Condensed

KORD - Chicago/O'Hare Intl, IL, US

Issued at 0540 UTC 11 Feb 2016
Updated at: 0629 UTC 11 Feb 2016
Time0551Z 11/07Z 11/08Z 11/09Z 11/10Z 11/11Z 11/12Z 11/13Z 11/14Z 11/15Z 11/16Z 11/17Z 11/18Z 11/19Z
Type OBS PRVL PRVL PRVL PRVL PRVL PRVL PRVL PRVL PRVL PRVL PRVL PRVL PRVL
VIS 10 >6 >6 >6 >6 >6 >6 >6 >6 >6 >6 >6 >6 >6
CIG 140 120 120 120 120 120 120 120 120 120 120 120 120 120
Cover BKN BKN BKN BKN BKN BKN BKN BKN BKN BKN BKN BKN BKN BKN
FltCat VFR VFR VFR VFR VFR VFR VFR VFR VFR VFR VFR VFR VFR VFR
WX -- -- -- -- -- -- -- -- -- -- -- -- -- --
WDir 320 330 330 330 330 330 330 330 330 330 330 330 330 330
WSpd 7 7 7 7 7 7 7 7 7 7 7 7 7 7
WGst -- -- -- -- -- -- -- -- -- -- -- -- -- --
R04/22
XWnd 7 7 7 7 7 7 7 7 7 7 7 7 7 7
HWnd 1 3 3 3 3 3 3 3 3 3 3 3 3 3
R09/27
XWnd 5 6 6 6 6 6 6 6 6 6 6 6 6 6
HWnd -4 -4 -4 -4 -4 -4 -4 -4 -4 -4 -4 -4 -4 -4
R10/28
XWnd 5 6 6 6 6 6 6 6 6 6 6 6 6 6
HWnd -4 -4 -4 -4 -4 -4 -4 -4 -4 -4 -4 -4 -4 -4
R14/32
XWnd -0 1 1 1 1 1 1 1 1 1 1 1 1 1
HWnd -7 -7 -7 -7 -7 -7 -7 -7 -7 -7 -7 -7 -7 -7

NOTE: TEMPO conditions in [brackets]. Keep in mind TEMPO conditions might be better (lower impact) than prevailing conditions.

Raw TAF
KORD 110540Z 1106/1212 33007KT P6SM BKN120 BKN250
  FM120200 26005KT P6SM BKN090 BKN250


Raw METAR
KORD 110551Z 32007KT 10SM BKN140 M12/M17 A3016 RMK AO2 SLP227 T11171172 11100 21122 410781128 50006
KORD 110451Z 31006KT 10SM SCT140 M12/M17 A3017 RMK AO2 SLP229 T11221172
KORD 110351Z 32004KT 10SM FEW036 FEW160 M12/M17 A3016 RMK AO2 SLP227 T11171172

METAR Board
Radar Display
Forecast Discussion

TAF Board Legend

Potential Impact
Threat None Slight Moderate High
Visibility (sm) ≥5.1 5.1>X≥3 3>X≥1 <1
Ceiling (100 ft) ≥30.1 30.1>X≥10 10>X≥5 <5
Wind Speed (kt) <10 10≤X<20 20≤X<30 ≥30
Wind Gust (kt) <15 15≤X<25 25≤X<35 ≥35
Weather No Wx Reported VCTS,-TS,-FZRA,SN TS,FZRA +TS,+FZRA,+SN